sensor_id;sensor_type;location;lat;lon;timestamp;pressure;altitude;pressure_sealevel;temperature;humidity
77321;BME280;66382;52.252;8.780;2023-03-01T00:01:28;102095.53;;;0.48;54.59
77321;BME280;66382;52.252;8.780;2023-03-01T00:03:55;102093.06;;;0.45;55.64
77321;BME280;66382;52.252;8.780;2023-03-01T00:06:21;102096.88;;;0.39;55.04
77321;BME280;66382;52.252;8.780;2023-03-01T00:08:48;102097.88;;;0.36;55.74
77321;BME280;66382;52.252;8.780;2023-03-01T00:11:16;102105.91;;;0.35;55.49
77321;BME280;66382;52.252;8.780;2023-03-01T00:13:42;102099.00;;;0.32;56.12
77321;BME280;66382;52.252;8.780;2023-03-01T00:16:11;102103.50;;;0.30;54.76
77321;BME280;66382;52.252;8.780;2023-03-01T00:18:38;102106.28;;;0.27;55.41
77321;BME280;66382;52.252;8.780;2023-03-01T00:21:04;102105.44;;;0.27;55.32
77321;BME280;66382;52.252;8.780;2023-03-01T00:23:30;102114.28;;;0.26;55.19
77321;BME280;66382;52.252;8.780;2023-03-01T00:25:57;102109.94;;;0.25;55.87
77321;BME280;66382;52.252;8.780;2023-03-01T00:28:23;102108.25;;;0.24;55.92
77321;BME280;66382;52.252;8.780;2023-03-01T00:30:49;102103.03;;;0.22;56.31
77321;BME280;66382;52.252;8.780;2023-03-01T00:33:14;102105.69;;;0.22;55.63
77321;BME280;66382;52.252;8.780;2023-03-01T00:35:41;102105.84;;;0.19;55.15
77321;BME280;66382;52.252;8.780;2023-03-01T00:38:07;102102.44;;;0.17;56.26
77321;BME280;66382;52.252;8.780;2023-03-01T00:40:35;102105.25;;;0.14;56.06
77321;BME280;66382;52.252;8.780;2023-03-01T00:43:01;102104.47;;;0.12;55.82
77321;BME280;66382;52.252;8.780;2023-03-01T00:45:27;102101.22;;;0.07;55.75
77321;BME280;66382;52.252;8.780;2023-03-01T00:47:53;102106.44;;;0.08;56.12
77321;BME280;66382;52.252;8.780;2023-03-01T00:50:19;102105.47;;;0.09;55.51
77321;BME280;66382;52.252;8.780;2023-03-01T00:52:46;102099.44;;;0.07;55.99
77321;BME280;66382;52.252;8.780;2023-03-01T00:55:12;102100.31;;;0.08;55.98
77321;BME280;66382;52.252;8.780;2023-03-01T00:57:38;102083.50;;;-0.07;55.25
77321;BME280;66382;52.252;8.780;2023-03-01T01:00:05;102094.66;;;-0.02;56.73
77321;BME280;66382;52.252;8.780;2023-03-01T01:02:32;102095.50;;;-0.02;56.84
77321;BME280;66382;52.252;8.780;2023-03-01T01:04:58;102092.72;;;0.02;56.11
77321;BME280;66382;52.252;8.780;2023-03-01T01:07:24;102094.56;;;-0.01;55.97
77321;BME280;66382;52.252;8.780;2023-03-01T01:09:51;102086.06;;;-0.06;56.47
77321;BME280;66382;52.252;8.780;2023-03-01T01:12:17;102080.09;;;-0.09;55.96
77321;BME280;66382;52.252;8.780;2023-03-01T01:14:42;102079.16;;;-0.08;56.30
77321;BME280;66382;52.252;8.780;2023-03-01T01:17:08;102060.34;;;-0.18;56.02
77321;BME280;66382;52.252;8.780;2023-03-01T01:19:34;102068.72;;;-0.10;55.66
77321;BME280;66382;52.252;8.780;2023-03-01T01:22:00;102073.22;;;-0.12;56.19
77321;BME280;66382;52.252;8.780;2023-03-01T01:24:25;102077.69;;;-0.14;56.20
77321;BME280;66382;52.252;8.780;2023-03-01T01:26:52;102077.88;;;-0.17;56.11
77321;BME280;66382;52.252;8.780;2023-03-01T01:29:18;102078.94;;;-0.21;56.31
77321;BME280;66382;52.252;8.780;2023-03-01T01:31:44;102071.03;;;-0.21;56.22
77321;BME280;66382;52.252;8.780;2023-03-01T01:34:13;102069.34;;;-0.22;56.22
77321;BME280;66382;52.252;8.780;2023-03-01T01:36:40;102075.47;;;-0.22;56.69
77321;BME280;66382;52.252;8.780;2023-03-01T01:39:05;102065.78;;;-0.21;56.20
77321;BME280;66382;52.252;8.780;2023-03-01T01:41:32;102057.31;;;-0.28;56.30
77321;BME280;66382;52.252;8.780;2023-03-01T01:44:14;102061.75;;;-0.28;56.03
77321;BME280;66382;52.252;8.780;2023-03-01T01:46:41;102064.38;;;-0.28;56.44
77321;BME280;66382;52.252;8.780;2023-03-01T01:49:19;102054.84;;;-0.31;56.46
77321;BME280;66382;52.252;8.780;2023-03-01T01:51:48;102062.75;;;-0.31;56.94
77321;BME280;66382;52.252;8.780;2023-03-01T01:54:19;102056.66;;;-0.31;56.33
77321;BME280;66382;52.252;8.780;2023-03-01T01:56:51;102058.56;;;-0.35;56.66
77321;BME280;66382;52.252;8.780;2023-03-01T01:59:19;102051.78;;;-0.39;56.27
77321;BME280;66382;52.252;8.780;2023-03-01T02:01:45;102059.75;;;-0.40;56.28
77321;BME280;66382;52.252;8.780;2023-03-01T02:04:11;102051.16;;;-0.44;56.50
77321;BME280;66382;52.252;8.780;2023-03-01T02:06:39;102053.69;;;-0.43;56.48
77321;BME280;66382;52.252;8.780;2023-03-01T02:09:12;102055.44;;;-0.41;56.77
77321;BME280;66382;52.252;8.780;2023-03-01T02:11:38;102050.16;;;-0.41;56.99
77321;BME280;66382;52.252;8.780;2023-03-01T02:14:05;102051.94;;;-0.42;56.52
77321;BME280;66382;52.252;8.780;2023-03-01T02:16:32;102050.28;;;-0.45;56.62
77321;BME280;66382;52.252;8.780;2023-03-01T02:18:59;102054.94;;;-0.50;56.84
77321;BME280;66382;52.252;8.780;2023-03-01T02:21:37;102050.69;;;-0.52;56.10
77321;BME280;66382;52.252;8.780;2023-03-01T02:24:13;102051.63;;;-0.53;56.77
77321;BME280;66382;52.252;8.780;2023-03-01T02:26:48;102056.97;;;-0.55;56.95
77321;BME280;66382;52.252;8.780;2023-03-01T02:29:17;102063.13;;;-0.54;57.07
77321;BME280;66382;52.252;8.780;2023-03-01T02:31:43;102053.59;;;-0.57;56.67
77321;BME280;66382;52.252;8.780;2023-03-01T02:34:12;102058.06;;;-0.59;56.93
77321;BME280;66382;52.252;8.780;2023-03-01T02:36:40;102044.91;;;-0.59;57.00
77321;BME280;66382;52.252;8.780;2023-03-01T02:39:14;102045.03;;;-0.62;57.42
77321;BME280;66382;52.252;8.780;2023-03-01T02:41:44;102042.34;;;-0.60;57.20
77321;BME280;66382;52.252;8.780;2023-03-01T02:44:12;102036.28;;;-0.62;56.98
77321;BME280;66382;52.252;8.780;2023-03-01T02:46:44;102047.53;;;-0.59;56.26
77321;BME280;66382;52.252;8.780;2023-03-01T02:49:25;102027.72;;;-0.66;56.56
77321;BME280;66382;52.252;8.780;2023-03-01T02:54:40;102031.41;;;-0.70;57.08
77321;BME280;66382;52.252;8.780;2023-03-01T02:57:08;102031.34;;;-0.69;57.03
77321;BME280;66382;52.252;8.780;2023-03-01T02:59:35;102029.63;;;-0.70;57.02
77321;BME280;66382;52.252;8.780;2023-03-01T03:02:03;102032.25;;;-0.70;57.32
77321;BME280;66382;52.252;8.780;2023-03-01T03:04:29;102021.81;;;-0.71;56.87
77321;BME280;66382;52.252;8.780;2023-03-01T03:06:54;102023.69;;;-0.73;56.90
77321;BME280;66382;52.252;8.780;2023-03-01T03:09:20;102027.31;;;-0.76;57.03
77321;BME280;66382;52.252;8.780;2023-03-01T03:11:46;102022.13;;;-0.77;56.64
77321;BME280;66382;52.252;8.780;2023-03-01T03:14:15;102015.22;;;-0.80;57.08
77321;BME280;66382;52.252;8.780;2023-03-01T03:16:42;102015.41;;;-0.83;57.67
77321;BME280;66382;52.252;8.780;2023-03-01T03:19:10;102013.69;;;-0.84;57.43
77321;BME280;66382;52.252;8.780;2023-03-01T03:21:36;102019.81;;;-0.83;57.44
77321;BME280;66382;52.252;8.780;2023-03-01T03:24:03;102015.56;;;-0.86;56.92
77321;BME280;66382;52.252;8.780;2023-03-01T03:26:29;102014.00;;;-0.90;57.31
77321;BME280;66382;52.252;8.780;2023-03-01T03:28:55;102007.88;;;-0.91;57.35
77321;BME280;66382;52.252;8.780;2023-03-01T03:31:21;102008.66;;;-0.89;57.28
77321;BME280;66382;52.252;8.780;2023-03-01T03:33:46;102006.88;;;-0.88;57.23
77321;BME280;66382;52.252;8.780;2023-03-01T03:36:16;102004.47;;;-0.93;57.12
77321;BME280;66382;52.252;8.780;2023-03-01T03:38:41;101995.78;;;-0.95;57.47
77321;BME280;66382;52.252;8.780;2023-03-01T03:41:07;101995.00;;;-0.97;57.32
77321;BME280;66382;52.252;8.780;2023-03-01T03:43:36;101993.09;;;-0.93;58.26
77321;BME280;66382;52.252;8.780;2023-03-01T03:46:02;101992.25;;;-0.94;57.49
77321;BME280;66382;52.252;8.780;2023-03-01T03:48:28;101987.13;;;-0.97;57.34
77321;BME280;66382;52.252;8.780;2023-03-01T03:50:56;101990.97;;;-1.04;57.41
77321;BME280;66382;52.252;8.780;2023-03-01T03:53:27;101997.19;;;-1.05;58.34
77321;BME280;66382;52.252;8.780;2023-03-01T03:55:54;101986.59;;;-1.03;56.87
77321;BME280;66382;52.252;8.780;2023-03-01T03:58:22;101979.72;;;-1.06;57.40
77321;BME280;66382;52.252;8.780;2023-03-01T04:00:51;101981.47;;;-1.06;57.52
77321;BME280;66382;52.252;8.780;2023-03-01T04:03:18;101977.31;;;-1.11;57.66
77321;BME280;66382;52.252;8.780;2023-03-01T04:05:45;101982.63;;;-1.12;57.67
77321;BME280;66382;52.252;8.780;2023-03-01T04:08:11;101980.94;;;-1.13;57.98
77321;BME280;66382;52.252;8.780;2023-03-01T04:10:40;101978.38;;;-1.15;57.61
77321;BME280;66382;52.252;8.780;2023-03-01T04:13:09;101984.56;;;-1.16;56.99
77321;BME280;66382;52.252;8.780;2023-03-01T04:15:35;101975.69;;;-1.13;58.01
77321;BME280;66382;52.252;8.780;2023-03-01T04:18:01;101979.31;;;-1.16;57.66
77321;BME280;66382;52.252;8.780;2023-03-01T04:20:29;101973.22;;;-1.16;57.28
77321;BME280;66382;52.252;8.780;2023-03-01T04:23:00;101965.38;;;-1.18;57.75
77321;BME280;66382;52.252;8.780;2023-03-01T04:25:26;101982.22;;;-1.22;57.44
77321;BME280;66382;52.252;8.780;2023-03-01T04:27:53;101974.50;;;-1.25;57.67
77321;BME280;66382;52.252;8.780;2023-03-01T04:30:19;101981.38;;;-1.22;57.96
77321;BME280;66382;52.252;8.780;2023-03-01T04:32:44;101977.06;;;-1.23;58.06
77321;BME280;66382;52.252;8.780;2023-03-01T04:35:10;101971.66;;;-1.20;57.78
77321;BME280;66382;52.252;8.780;2023-03-01T04:37:36;101974.34;;;-1.22;57.85
77321;BME280;66382;52.252;8.780;2023-03-01T04:40:02;101980.69;;;-1.26;58.02
77321;BME280;66382;52.252;8.780;2023-03-01T04:42:27;101977.97;;;-1.24;57.99
77321;BME280;66382;52.252;8.780;2023-03-01T04:44:54;101975.50;;;-1.27;57.72
77321;BME280;66382;52.252;8.780;2023-03-01T04:47:20;101976.44;;;-1.28;58.01
77321;BME280;66382;52.252;8.780;2023-03-01T04:49:46;101976.72;;;-1.35;58.28
77321;BME280;66382;52.252;8.780;2023-03-01T04:52:11;101974.94;;;-1.34;57.84
77321;BME280;66382;52.252;8.780;2023-03-01T04:54:37;101973.16;;;-1.34;58.25
77321;BME280;66382;52.252;8.780;2023-03-01T04:57:03;101983.56;;;-1.31;58.03
77321;BME280;66382;52.252;8.780;2023-03-01T04:59:29;101985.41;;;-1.33;58.48
77321;BME280;66382;52.252;8.780;2023-03-01T05:01:56;101983.63;;;-1.32;58.05
77321;BME280;66382;52.252;8.780;2023-03-01T05:04:22;101982.84;;;-1.34;57.72
77321;BME280;66382;52.252;8.780;2023-03-01T05:06:48;101983.16;;;-1.40;58.21
77321;BME280;66382;52.252;8.780;2023-03-01T05:09:14;101984.00;;;-1.40;58.45
77321;BME280;66382;52.252;8.780;2023-03-01T05:11:40;101986.63;;;-1.40;58.48
77321;BME280;66382;52.252;8.780;2023-03-01T05:14:06;101984.00;;;-1.40;58.28
77321;BME280;66382;52.252;8.780;2023-03-01T05:16:32;101984.94;;;-1.41;58.70
77321;BME280;66382;52.252;8.780;2023-03-01T05:19:00;101978.72;;;-1.40;58.69
77321;BME280;66382;52.252;8.780;2023-03-01T05:21:26;101972.69;;;-1.42;58.76
77321;BME280;66382;52.252;8.780;2023-03-01T05:23:51;101972.06;;;-1.47;58.04
77321;BME280;66382;52.252;8.780;2023-03-01T05:26:19;101970.44;;;-1.49;58.28
77321;BME280;66382;52.252;8.780;2023-03-01T05:28:45;101975.84;;;-1.53;58.36
77321;BME280;66382;52.252;8.780;2023-03-01T05:31:11;101972.28;;;-1.52;58.44
77321;BME280;66382;52.252;8.780;2023-03-01T05:33:36;101973.13;;;-1.51;58.12
77321;BME280;66382;52.252;8.780;2023-03-01T05:36:04;101978.38;;;-1.51;58.46
77321;BME280;66382;52.252;8.780;2023-03-01T05:38:30;101982.75;;;-1.50;58.56
77321;BME280;66382;52.252;8.780;2023-03-01T05:40:56;101975.75;;;-1.51;58.81
77321;BME280;66382;52.252;8.780;2023-03-01T05:43:22;101981.03;;;-1.51;58.65
77321;BME280;66382;52.252;8.780;2023-03-01T05:45:47;101980.13;;;-1.50;58.90
77321;BME280;66382;52.252;8.780;2023-03-01T05:48:13;101982.59;;;-1.47;58.68
77321;BME280;66382;52.252;8.780;2023-03-01T05:50:40;101979.19;;;-1.49;59.16
77321;BME280;66382;52.252;8.780;2023-03-01T05:53:10;101980.00;;;-1.48;58.95
77321;BME280;66382;52.252;8.780;2023-03-01T05:55:36;101978.25;;;-1.48;58.38
77321;BME280;66382;52.252;8.780;2023-03-01T05:58:04;101962.75;;;-1.54;58.85
77321;BME280;66382;52.252;8.780;2023-03-01T06:00:31;101974.22;;;-1.55;57.75
77321;BME280;66382;52.252;8.780;2023-03-01T06:02:57;101970.97;;;-1.60;58.50
77321;BME280;66382;52.252;8.780;2023-03-01T06:05:24;101976.91;;;-1.57;58.23
77321;BME280;66382;52.252;8.780;2023-03-01T06:07:50;101975.22;;;-1.58;58.59
77321;BME280;66382;52.252;8.780;2023-03-01T06:10:20;101977.06;;;-1.60;58.10
77321;BME280;66382;52.252;8.780;2023-03-01T06:12:47;101981.59;;;-1.63;58.93
77321;BME280;66382;52.252;8.780;2023-03-01T06:15:15;101976.59;;;-1.68;59.07
77321;BME280;66382;52.252;8.780;2023-03-01T06:17:43;101975.66;;;-1.67;59.08
77321;BME280;66382;52.252;8.780;2023-03-01T06:20:10;101986.88;;;-1.63;59.06
77321;BME280;66382;52.252;8.780;2023-03-01T06:22:36;101984.97;;;-1.60;58.82
77321;BME280;66382;52.252;8.780;2023-03-01T06:25:03;101977.97;;;-1.61;58.49
77321;BME280;66382;52.252;8.780;2023-03-01T06:27:30;101989.28;;;-1.59;58.45
77321;BME280;66382;52.252;8.780;2023-03-01T06:29:56;101991.06;;;-1.59;59.35
77321;BME280;66382;52.252;8.780;2023-03-01T06:32:22;101994.47;;;-1.57;59.06
77321;BME280;66382;52.252;8.780;2023-03-01T06:34:48;101981.34;;;-1.57;59.13
77321;BME280;66382;52.252;8.780;2023-03-01T06:37:13;101985.44;;;-1.52;58.97
77321;BME280;66382;52.252;8.780;2023-03-01T06:39:39;101988.78;;;-1.48;58.63
77321;BME280;66382;52.252;8.780;2023-03-01T06:42:05;101982.53;;;-1.45;58.89
77321;BME280;66382;52.252;8.780;2023-03-01T06:44:32;101980.44;;;-1.39;59.46
77321;BME280;66382;52.252;8.780;2023-03-01T06:46:57;101981.16;;;-1.35;59.57
77321;BME280;66382;52.252;8.780;2023-03-01T06:49:23;101983.56;;;-1.31;60.15
77321;BME280;66382;52.252;8.780;2023-03-01T06:51:49;101987.66;;;-1.25;59.63
77321;BME280;66382;52.252;8.780;2023-03-01T06:54:14;101984.25;;;-1.27;60.05
77321;BME280;66382;52.252;8.780;2023-03-01T06:56:40;101985.59;;;-1.18;60.09
77321;BME280;66382;52.252;8.780;2023-03-01T06:59:06;101970.25;;;-1.10;60.03
77321;BME280;66382;52.252;8.780;2023-03-01T07:01:33;101981.22;;;-1.02;59.71
77321;BME280;66382;52.252;8.780;2023-03-01T07:03:58;101969.47;;;-0.95;60.16
77321;BME280;66382;52.252;8.780;2023-03-01T07:06:24;101956.06;;;-0.90;59.76
77321;BME280;66382;52.252;8.780;2023-03-01T07:08:50;101963.78;;;-0.70;60.53
77321;BME280;66382;52.252;8.780;2023-03-01T07:11:16;101971.66;;;-0.19;61.99
77321;BME280;66382;52.252;8.780;2023-03-01T07:13:41;101965.03;;;0.53;61.85
77321;BME280;66382;52.252;8.780;2023-03-01T07:16:07;101965.47;;;1.36;61.85
77321;BME280;66382;52.252;8.780;2023-03-01T07:18:35;101961.91;;;2.07;60.86
77321;BME280;66382;52.252;8.780;2023-03-01T07:21:04;101952.09;;;2.64;60.59
77321;BME280;66382;52.252;8.780;2023-03-01T07:23:30;101946.38;;;3.22;59.62
77321;BME280;66382;52.252;8.780;2023-03-01T07:25:55;101948.91;;;3.75;59.13
77321;BME280;66382;52.252;8.780;2023-03-01T07:28:22;101941.63;;;4.03;58.44
77321;BME280;66382;52.252;8.780;2023-03-01T07:30:48;101948.13;;;4.36;57.99
77321;BME280;66382;52.252;8.780;2023-03-01T07:33:14;101942.41;;;4.53;57.29
77321;BME280;66382;52.252;8.780;2023-03-01T07:35:41;101939.34;;;4.70;56.06
77321;BME280;66382;52.252;8.780;2023-03-01T07:38:07;101946.66;;;4.91;56.23
77321;BME280;66382;52.252;8.780;2023-03-01T07:40:32;101937.41;;;5.19;55.92
77321;BME280;66382;52.252;8.780;2023-03-01T07:42:58;101940.22;;;5.51;56.60
77321;BME280;66382;52.252;8.780;2023-03-01T07:45:24;101938.03;;;5.90;56.24
77321;BME280;66382;52.252;8.780;2023-03-01T07:47:50;101939.53;;;6.38;55.08
77321;BME280;66382;52.252;8.780;2023-03-01T07:50:16;101933.28;;;6.60;55.52
77321;BME280;66382;52.252;8.780;2023-03-01T07:52:44;101940.94;;;6.85;55.24
77321;BME280;66382;52.252;8.780;2023-03-01T07:55:10;101937.88;;;7.11;55.50
77321;BME280;66382;52.252;8.780;2023-03-01T07:57:36;101938.13;;;7.50;53.70
77321;BME280;66382;52.252;8.780;2023-03-01T08:00:02;101937.03;;;8.03;54.12
77321;BME280;66382;52.252;8.780;2023-03-01T08:02:28;101932.53;;;8.53;53.40
77321;BME280;66382;52.252;8.780;2023-03-01T08:04:53;101931.94;;;8.98;52.86
77321;BME280;66382;52.252;8.780;2023-03-01T08:07:19;101932.41;;;9.41;51.96
77321;BME280;66382;52.252;8.780;2023-03-01T08:09:46;101927.81;;;9.61;52.09
77321;BME280;66382;52.252;8.780;2023-03-01T08:12:12;101929.56;;;9.80;50.83
77321;BME280;66382;52.252;8.780;2023-03-01T08:14:37;101925.09;;;9.98;51.42
77321;BME280;66382;52.252;8.780;2023-03-01T08:17:03;101924.41;;;10.24;51.47
77321;BME280;66382;52.252;8.780;2023-03-01T08:19:29;101924.50;;;10.50;51.28
77321;BME280;66382;52.252;8.780;2023-03-01T08:21:55;101930.31;;;10.81;49.31
77321;BME280;66382;52.252;8.780;2023-03-01T08:24:20;101919.31;;;11.10;47.97
77321;BME280;66382;52.252;8.780;2023-03-01T08:26:47;101920.19;;;11.19;48.72
77321;BME280;66382;52.252;8.780;2023-03-01T08:29:13;101927.09;;;11.22;48.21
77321;BME280;66382;52.252;8.780;2023-03-01T08:31:39;101927.75;;;11.15;49.10
77321;BME280;66382;52.252;8.780;2023-03-01T08:34:08;101926.41;;;11.19;48.14
77321;BME280;66382;52.252;8.780;2023-03-01T08:36:36;101925.94;;;11.24;47.67
77321;BME280;66382;52.252;8.780;2023-03-01T08:39:02;101919.78;;;11.32;47.55
77321;BME280;66382;52.252;8.780;2023-03-01T08:41:28;101917.06;;;11.58;46.06
77321;BME280;66382;52.252;8.780;2023-03-01T08:43:56;101908.94;;;11.84;46.50
77321;BME280;66382;52.252;8.780;2023-03-01T08:46:22;101907.06;;;11.76;46.05
77321;BME280;66382;52.252;8.780;2023-03-01T08:48:47;101908.44;;;11.46;41.77
77321;BME280;66382;52.252;8.780;2023-03-01T08:51:15;101910.31;;;10.93;45.08
77321;BME280;66382;52.252;8.780;2023-03-01T08:53:41;101914.31;;;10.71;45.17
77321;BME280;66382;52.252;8.780;2023-03-01T08:56:07;101910.25;;;10.67;46.63
77321;BME280;66382;52.252;8.780;2023-03-01T08:58:32;101913.59;;;10.87;48.09
77321;BME280;66382;52.252;8.780;2023-03-01T09:01:00;101915.19;;;10.98;48.50
77321;BME280;66382;52.252;8.780;2023-03-01T09:03:26;101884.31;;;10.94;46.52
77321;BME280;66382;52.252;8.780;2023-03-01T09:05:52;101909.69;;;11.26;47.48
77321;BME280;66382;52.252;8.780;2023-03-01T09:08:18;101883.94;;;11.49;45.19
77321;BME280;66382;52.252;8.780;2023-03-01T09:10:44;101890.50;;;11.89;42.33
77321;BME280;66382;52.252;8.780;2023-03-01T09:13:10;101896.63;;;12.16;46.73
77321;BME280;66382;52.252;8.780;2023-03-01T09:15:36;101904.75;;;12.32;44.90
77321;BME280;66382;52.252;8.780;2023-03-01T09:18:03;101891.81;;;12.36;44.62
77321;BME280;66382;52.252;8.780;2023-03-01T09:20:30;101902.88;;;12.24;44.30
77321;BME280;66382;52.252;8.780;2023-03-01T09:22:56;101909.94;;;12.17;45.48
77321;BME280;66382;52.252;8.780;2023-03-01T09:25:21;101900.88;;;12.35;44.53
77321;BME280;66382;52.252;8.780;2023-03-01T09:27:47;101898.72;;;12.46;41.37
77321;BME280;66382;52.252;8.780;2023-03-01T09:30:13;101892.16;;;12.49;44.32
77321;BME280;66382;52.252;8.780;2023-03-01T09:32:39;101898.19;;;12.43;44.40
77321;BME280;66382;52.252;8.780;2023-03-01T09:35:07;101890.63;;;12.38;45.01
77321;BME280;66382;52.252;8.780;2023-03-01T09:37:34;101879.38;;;12.35;39.93
77321;BME280;66382;52.252;8.780;2023-03-01T09:40:00;101884.56;;;12.36;42.60
77321;BME280;66382;52.252;8.780;2023-03-01T09:42:29;101882.25;;;12.50;46.46
77321;BME280;66382;52.252;8.780;2023-03-01T09:45:00;101875.03;;;12.66;44.61
77321;BME280;66382;52.252;8.780;2023-03-01T09:47:30;101876.34;;;12.70;43.63
77321;BME280;66382;52.252;8.780;2023-03-01T09:50:03;101873.81;;;12.61;44.50
77321;BME280;66382;52.252;8.780;2023-03-01T09:52:35;101865.78;;;12.69;45.77
77321;BME280;66382;52.252;8.780;2023-03-01T09:55:09;101868.78;;;12.74;45.88
77321;BME280;66382;52.252;8.780;2023-03-01T09:57:40;101868.78;;;12.58;44.44
77321;BME280;66382;52.252;8.780;2023-03-01T10:00:22;101865.59;;;12.70;48.71
77321;BME280;66382;52.252;8.780;2023-03-01T10:02:55;101856.50;;;12.63;46.40
77321;BME280;66382;52.252;8.780;2023-03-01T10:05:34;101872.63;;;12.31;46.89
77321;BME280;66382;52.252;8.780;2023-03-01T10:10:58;101859.97;;;11.98;45.01
77321;BME280;66382;52.252;8.780;2023-03-01T10:13:26;101874.25;;;11.91;45.22
77321;BME280;66382;52.252;8.780;2023-03-01T10:15:56;101873.22;;;11.92;45.69
77321;BME280;66382;52.252;8.780;2023-03-01T10:18:26;101879.72;;;11.81;44.24
77321;BME280;66382;52.252;8.780;2023-03-01T10:20:54;101875.75;;;11.93;43.22
77321;BME280;66382;52.252;8.780;2023-03-01T10:23:24;101873.81;;;12.12;44.80
77321;BME280;66382;52.252;8.780;2023-03-01T10:26:12;101865.53;;;12.05;47.18
77321;BME280;66382;52.252;8.780;2023-03-01T10:28:49;101865.34;;;11.98;47.14
77321;BME280;66382;52.252;8.780;2023-03-01T10:31:22;101863.84;;;11.96;46.04
77321;BME280;66382;52.252;8.780;2023-03-01T10:33:48;101873.34;;;11.82;44.93
77321;BME280;66382;52.252;8.780;2023-03-01T10:36:14;101865.91;;;11.68;45.17
77321;BME280;66382;52.252;8.780;2023-03-01T10:38:53;101873.19;;;11.49;41.40
77321;BME280;66382;52.252;8.780;2023-03-01T10:41:23;101863.00;;;11.18;47.67
77321;BME280;66382;52.252;8.780;2023-03-01T10:43:51;101863.09;;;11.09;45.26
77321;BME280;66382;52.252;8.780;2023-03-01T10:46:26;101865.31;;;11.13;46.70
77321;BME280;66382;52.252;8.780;2023-03-01T10:49:07;101857.34;;;11.30;45.84
77321;BME280;66382;52.252;8.780;2023-03-01T10:51:39;101854.13;;;11.26;41.06
77321;BME280;66382;52.252;8.780;2023-03-01T10:54:16;101867.44;;;11.10;43.60
77321;BME280;66382;52.252;8.780;2023-03-01T10:56:49;101862.13;;;10.66;43.00
77321;BME280;66382;52.252;8.780;2023-03-01T10:59:28;101860.22;;;10.22;43.04
77321;BME280;66382;52.252;8.780;2023-03-01T11:02:04;101862.63;;;9.80;43.10
77321;BME280;66382;52.252;8.780;2023-03-01T11:04:39;101867.41;;;9.48;42.80
77321;BME280;66382;52.252;8.780;2023-03-01T11:07:05;101869.03;;;9.32;44.25
77321;BME280;66382;52.252;8.780;2023-03-01T11:09:33;101861.91;;;9.22;43.98
77321;BME280;66382;52.252;8.780;2023-03-01T11:12:00;101871.50;;;9.15;43.54
77321;BME280;66382;52.252;8.780;2023-03-01T11:14:35;101861.50;;;9.17;44.11
77321;BME280;66382;52.252;8.780;2023-03-01T11:17:04;101859.50;;;9.19;41.89
77321;BME280;66382;52.252;8.780;2023-03-01T11:19:30;101867.31;;;8.93;42.59
77321;BME280;66382;52.252;8.780;2023-03-01T11:22:01;101857.94;;;8.70;44.04
77321;BME280;66382;52.252;8.780;2023-03-01T11:24:33;101862.97;;;8.73;44.75
77321;BME280;66382;52.252;8.780;2023-03-01T11:27:04;101854.00;;;8.64;41.61
77321;BME280;66382;52.252;8.780;2023-03-01T11:29:38;101860.19;;;8.45;40.43
77321;BME280;66382;52.252;8.780;2023-03-01T11:32:07;101858.06;;;8.19;42.01
77321;BME280;66382;52.252;8.780;2023-03-01T11:34:40;101846.38;;;8.01;43.40
77321;BME280;66382;52.252;8.780;2023-03-01T11:37:16;101848.47;;;7.97;41.92
77321;BME280;66382;52.252;8.780;2023-03-01T11:39:54;101857.72;;;7.93;42.88
77321;BME280;66382;52.252;8.780;2023-03-01T11:42:29;101847.63;;;7.87;45.00
77321;BME280;66382;52.252;8.780;2023-03-01T11:45:02;101844.69;;;8.00;44.64
77321;BME280;66382;52.252;8.780;2023-03-01T11:47:43;101840.59;;;8.06;45.61
77321;BME280;66382;52.252;8.780;2023-03-01T11:50:19;101839.94;;;8.04;44.80
77321;BME280;66382;52.252;8.780;2023-03-01T11:52:59;101836.94;;;7.87;44.53
77321;BME280;66382;52.252;8.780;2023-03-01T11:55:45;101833.97;;;7.90;45.36
77321;BME280;66382;52.252;8.780;2023-03-01T11:58:27;101829.34;;;7.83;44.55
77321;BME280;66382;52.252;8.780;2023-03-01T12:01:07;101829.88;;;7.67;44.37
77321;BME280;66382;52.252;8.780;2023-03-01T12:03:47;101815.38;;;7.60;45.39
77321;BME280;66382;52.252;8.780;2023-03-01T12:06:28;101820.25;;;7.45;45.33
77321;BME280;66382;52.252;8.780;2023-03-01T12:09:11;101831.75;;;7.36;43.54
77321;BME280;66382;52.252;8.780;2023-03-01T12:12:02;101817.84;;;7.32;45.52
77321;BME280;66382;52.252;8.780;2023-03-01T12:14:55;101812.34;;;7.33;46.67
77321;BME280;66382;52.252;8.780;2023-03-01T12:17:52;101820.94;;;7.37;44.95
77321;BME280;66382;52.252;8.780;2023-03-01T12:20:28;101811.38;;;7.35;45.95
77321;BME280;66382;52.252;8.780;2023-03-01T12:26:02;101790.19;;;7.43;45.41
77321;BME280;66382;52.252;8.780;2023-03-01T12:31:46;101787.72;;;7.61;46.25
77321;BME280;66382;52.252;8.780;2023-03-01T12:34:28;101784.19;;;7.60;44.99
77321;BME280;66382;52.252;8.780;2023-03-01T12:37:14;101767.75;;;7.45;45.28
77321;BME280;66382;52.252;8.780;2023-03-01T12:39:56;101776.47;;;7.47;45.91
77321;BME280;66382;52.252;8.780;2023-03-01T12:42:35;101760.03;;;7.42;45.37
77321;BME280;66382;52.252;8.780;2023-03-01T12:45:26;101764.50;;;7.51;46.87
77321;BME280;66382;52.252;8.780;2023-03-01T12:48:09;101766.06;;;7.54;46.00
77321;BME280;66382;52.252;8.780;2023-03-01T12:50:42;101754.97;;;7.59;44.16
77321;BME280;66382;52.252;8.780;2023-03-01T12:53:21;101759.19;;;7.61;45.77
77321;BME280;66382;52.252;8.780;2023-03-01T12:55:48;101754.84;;;7.60;45.94
77321;BME280;66382;52.252;8.780;2023-03-01T12:58:24;101750.19;;;7.52;44.51
77321;BME280;66382;52.252;8.780;2023-03-01T13:01:02;101755.38;;;7.54;45.67
77321;BME280;66382;52.252;8.780;2023-03-01T13:03:38;101740.34;;;7.43;44.64
77321;BME280;66382;52.252;8.780;2023-03-01T13:06:12;101740.91;;;7.37;44.71
77321;BME280;66382;52.252;8.780;2023-03-01T13:08:42;101730.78;;;7.31;44.96
77321;BME280;66382;52.252;8.780;2023-03-01T13:11:16;101727.38;;;7.29;45.44
77321;BME280;66382;52.252;8.780;2023-03-01T13:13:43;101713.34;;;7.27;44.47